KSMO 221941Z 2220/2318 20005KT 4SM HZ OVC015
FM222100 23010KT P6SM SCT015
FM230200 22005KT P6SM OVC015
FM230800 VRB03KT 5SM -DZ BR BKN008 OVC015
From batch tds/tafs/production/2024/4/22/h20_m00_tafs.cache.xml.gz
Issued (30 days ago)
Forecasts
2220/2221 20005KT 4SM OVC1500

---
wx_string: HZ
fcst_time_to: '2024-04-22T21:00:00Z'
sky_condition:
- sky_cover: OVC
  cloud_base_ft_agl: '1500'
wind_speed_kt: '5'
fcst_time_from: '2024-04-22T20:00:00Z'
wind_dir_degrees: '200'
visibility_statute_mi: '4'

FM222100 23010KT 6+SM SCT1500

---
fcst_time_to: '2024-04-23T02:00:00Z'
sky_condition:
- sky_cover: SCT
  cloud_base_ft_agl: '1500'
wind_speed_kt: '10'
fcst_time_from: '2024-04-22T21:00:00Z'
change_indicator: FM
wind_dir_degrees: '230'
visibility_statute_mi: 6+

FM230200 22005KT 6+SM OVC1500

---
fcst_time_to: '2024-04-23T08:00:00Z'
sky_condition:
- sky_cover: OVC
  cloud_base_ft_agl: '1500'
wind_speed_kt: '5'
fcst_time_from: '2024-04-23T02:00:00Z'
change_indicator: FM
wind_dir_degrees: '220'
visibility_statute_mi: 6+

FM230800 VRB03KT 5SM BKN800 OVC1500

---
wx_string: "-DZ BR"
fcst_time_to: '2024-04-23T18:00:00Z'
sky_condition:
- - sky_cover: BKN
    cloud_base_ft_agl: '800'
- - sky_cover: OVC
    cloud_base_ft_agl: '1500'
wind_speed_kt: '3'
fcst_time_from: '2024-04-23T08:00:00Z'
change_indicator: FM
wind_dir_degrees: VRB
visibility_statute_mi: '5'

talk